Time;durP1;ratioP1;P1;durP2;ratioP2;P2;SDS_P1;SDS_P2;PMS_P1;PMS_P2;Temp;Humidity;BMP_temperature;BMP_pressure;BME280_temperature;BME280_humidity;BME280_pressure;Samples;Min_cycle;Max_cycle;Signal;HPM_P1;HPM_P2
2022/12/15 00:39:10;;;;;;;17.00;7.47;;;-7.50;99.90;;;;;;7403495;19;19937;-65
2022/12/15 00:41:39;;;;;;;15.90;7.18;;;-7.40;99.90;;;;;;7400030;19;19921;-65
2022/12/15 00:44:08;;;;;;;14.75;7.40;;;-7.50;99.90;;;;;;7405108;19;20365;-65
2022/12/15 01:21:55;;;;;;;13.60;6.13;;;;;;;;;;7399796;19;20044;-65
2022/12/15 01:24:26;;;;;;;13.48;6.50;;;-6.40;99.90;;;;;;7402648;19;20364;-65
2022/12/15 01:26:55;;;;;;;14.02;7.25;;;;;;;;;;7401538;19;20416;-65
2022/12/15 01:29:24;;;;;;;14.93;6.40;;;-6.80;99.90;;;;;;7402710;19;19919;-65
2022/12/15 01:31:54;;;;;;;12.68;6.63;;;-7.00;99.90;;;;;;7393898;19;19911;-65
2022/12/15 01:34:25;;;;;;;13.13;6.63;;;-6.30;99.90;;;;;;7403481;19;19918;-65
2022/12/15 01:36:54;;;;;;;13.82;7.05;;;-6.40;99.90;;;;;;7403077;19;19958;-65
2022/12/15 01:39:23;;;;;;;11.45;6.18;;;-6.50;99.90;;;;;;7405218;19;19931;-65
2022/12/15 01:41:49;;;;;;;12.45;5.85;;;-7.30;99.90;;;;;;7412098;19;20255;-65
2022/12/15 01:44:20;;;;;;;;;;;-6.80;99.90;;;;;;7413178;19;19925;-65
2022/12/15 01:46:53;;;;;;;12.40;6.20;;;-7.30;99.90;;;;;;7410177;19;20298;-65
2022/12/15 01:49:26;;;;;;;;;;;-6.80;99.90;;;;;;7405112;19;19926;-65
2022/12/15 01:52:00;;;;;;;14.40;6.22;;;-6.80;99.90;;;;;;7409455;19;20340;-65
2022/12/15 01:54:33;;;;;;;12.05;5.57;;;-6.30;99.90;;;;;;7409310;19;20259;-65
2022/12/15 01:57:06;;;;;;;12.50;6.70;;;-6.40;99.90;;;;;;7409363;19;20006;-65
2022/12/15 01:59:39;;;;;;;12.10;6.05;;;-6.60;99.90;;;;;;7410055;19;19915;-65
2022/12/15 02:02:16;;;;;;;13.43;6.15;;;-7.00;99.90;;;;;;7408283;19;19922;-65
2022/12/15 02:04:49;;;;;;;12.23;6.70;;;-6.30;99.90;;;;;;7406132;19;19926;-65
2022/12/15 02:07:21;;;;;;;11.82;6.80;;;-5.90;99.90;;;;;;7408117;19;19911;-65
2022/12/15 02:09:56;;;;;;;14.95;6.13;;;-5.90;99.90;;;;;;7406633;19;20340;-64
2022/12/15 02:12:35;;;;;;;15.20;6.53;;;-6.50;99.90;;;;;;7408288;19;19954;-65
2022/12/15 02:15:17;;;;;;;14.75;6.35;;;-6.00;99.90;;;;;;7406703;19;20355;-65
2022/12/15 02:17:55;;;;;;;10.00;6.03;;;-7.30;99.90;;;;;;7408620;19;20224;-65
2022/12/15 02:20:54;;;;;;;12.68;6.50;;;-6.00;99.90;;;;;;7398661;19;20356;-65
2022/12/15 02:23:59;;;;;;;16.48;6.90;;;-6.70;99.90;;;;;;7407209;19;19939;-65
2022/12/15 02:27:10;;;;;;;11.68;5.97;;;-6.90;99.90;;;;;;7406143;19;19983;-65
2022/12/15 02:30:18;;;;;;;13.75;6.30;;;-6.20;99.90;;;;;;7408960;19;19927;-66
2022/12/15 02:33:00;;;;;;;13.60;5.80;;;-6.50;99.90;;;;;;7407216;19;20447;-65
2022/12/15 02:35:37;;;;;;;10.52;5.90;;;-5.80;99.90;;;;;;7408860;19;19930;-65
2022/12/15 02:38:07;;;;;;;10.88;5.35;;;-5.70;99.90;;;;;;7399027;19;20240;-65
2022/12/15 02:40:36;;;;;;;11.07;6.18;;;;;;;;;;7408043;19;19923;-65
2022/12/15 02:43:08;;;;;;;10.10;4.97;;;-5.70;99.90;;;;;;7409149;19;19943;-65
2022/12/15 02:45:50;;;;;;;11.25;5.20;;;-6.00;99.90;;;;;;7407590;19;19978;-65
2022/12/15 02:48:33;;;;;;;8.75;5.20;;;-6.50;99.90;;;;;;7407916;19;19911;-65
2022/12/15 02:51:17;;;;;;;13.30;6.13;;;-6.90;99.90;;;;;;7404647;19;20333;-66
2022/12/15 02:54:08;;;;;;;13.15;6.85;;;-6.80;99.90;;;;;;7406327;19;19931;-65
2022/12/15 02:56:45;;;;;;;13.20;6.57;;;-7.50;99.90;;;;;;7399492;19;19974;-65
2022/12/15 02:59:21;;;;;;;12.75;5.80;;;-6.80;99.90;;;;;;7409045;19;20368;-65
2022/12/15 03:01:55;;;;;;;13.43;6.68;;;-7.00;99.90;;;;;;7407068;19;19981;-65
2022/12/15 03:04:32;;;;;;;15.80;7.35;;;-7.70;99.90;;;;;;7407808;19;19934;-65
2022/12/15 03:07:05;;;;;;;12.88;6.88;;;-6.60;99.90;;;;;;7406475;19;19918;-65
2022/12/15 03:09:34;;;;;;;12.20;6.88;;;-7.70;99.90;;;;;;7406526;19;20390;-65
2022/12/15 03:12:06;;;;;;;11.40;5.53;;;-7.00;99.90;;;;;;7396266;19;20629;-65
2022/12/15 03:14:35;;;;;;;13.40;6.78;;;-7.20;99.90;;;;;;7402756;19;19918;-65
2022/12/15 03:17:06;;;;;;;13.05;6.53;;;-6.70;99.90;;;;;;7407803;19;19926;-65
2022/12/15 03:19:37;;;;;;;10.65;5.90;;;-7.60;99.90;;;;;;7407460;19;19919;-65
2022/12/15 03:22:07;;;;;;;9.88;5.93;;;;;;;;;;7408640;19;19926;-63
2022/12/15 03:24:36;;;;;;;12.25;6.57;;;-6.40;99.90;;;;;;7410406;19;19923;-64
2022/12/15 03:27:05;;;;;;;9.95;5.57;;;-7.40;99.90;;;;;;7407706;19;19922;-64
2022/12/15 03:29:34;;;;;;;12.73;6.43;;;-7.40;99.90;;;;;;7400227;19;19918;-64
2022/12/15 03:32:03;;;;;;;9.05;5.10;;;-6.70;99.90;;;;;;7407311;19;20516;-64
2022/12/15 03:34:32;;;;;;;8.85;4.78;;;-7.60;99.90;;;;;;7407016;19;19922;-64
2022/12/15 03:37:04;;;;;;;12.48;6.50;;;-7.00;99.90;;;;;;7406085;19;19956;-64
2022/12/15 03:39:33;;;;;;;11.52;5.82;;;-6.20;99.90;;;;;;7407317;19;19926;-64
2022/12/15 03:42:02;;;;;;;10.57;5.20;;;-6.60;99.90;;;;;;7396558;19;20492;-64
2022/12/15 03:44:31;;;;;;;11.68;6.40;;;-6.10;99.90;;;;;;7408506;19;19978;-64
2022/12/15 03:47:01;;;;;;;10.05;4.95;;;;;;;;;;7405993;19;19946;-64
2022/12/15 03:49:31;;;;;;;14.63;5.82;;;;;;;;;;7405706;19;19914;-64
2022/12/15 03:52:00;;;;;;;13.55;6.15;;;-7.40;99.90;;;;;;7405375;19;19932;-64
2022/12/15 03:54:31;;;;;;;11.90;5.88;;;-6.00;99.90;;;;;;7405815;19;19922;-64
2022/12/15 03:57:00;;;;;;;14.43;6.60;;;-7.00;99.90;;;;;;7396265;19;19925;-64
2022/12/15 03:59:29;;;;;;;11.20;6.38;;;-6.20;99.90;;;;;;7407072;19;19930;-64
2022/12/15 04:01:58;;;;;;;9.95;6.43;;;-6.00;99.90;;;;;;7405218;19;19919;-64
2022/12/15 04:04:27;;;;;;;9.32;6.43;;;-6.20;99.90;;;;;;7403528;19;19935;-64
2022/12/15 04:06:56;;;;;;;12.75;5.88;;;-6.20;99.90;;;;;;7405340;19;19974;-64
2022/12/15 04:09:25;;;;;;;13.10;6.50;;;-6.50;99.90;;;;;;7406286;19;19918;-63
2022/12/15 04:11:56;;;;;;;10.15;5.82;;;-7.20;99.90;;;;;;7403545;19;20344;-64
2022/12/15 04:14:26;;;;;;;13.38;5.88;;;-6.10;99.90;;;;;;7398501;19;19965;-64
2022/12/15 04:16:55;;;;;;;10.52;5.65;;;-6.20;99.90;;;;;;7404583;19;19922;-64
2022/12/15 04:22:07;;;;;;;12.23;5.25;;;-7.30;99.90;;;;;;7406831;19;19922;-64
2022/12/15 05:32:14;;;;;;;8.05;5.25;;;-7.70;99.90;;;;;;7402571;19;19914;-63
2022/12/15 05:34:43;;;;;;;12.73;5.85;;;-7.30;99.90;;;;;;7403643;19;19931;-63
2022/12/15 05:37:12;;;;;;;9.63;5.10;;;-7.10;99.90;;;;;;7403841;19;19910;-64
2022/12/15 05:39:45;;;;;;;10.13;6.15;;;;;;;;;;7403479;19;19918;-64
2022/12/15 05:42:14;;;;;;;11.40;6.13;;;;;;;;;;7402217;19;19925;-64
2022/12/15 05:44:43;;;;;;;11.10;5.72;;;-6.20;99.90;;;;;;7403101;19;19986;-64
2022/12/15 05:47:17;;;;;;;11.93;5.45;;;-7.30;99.90;;;;;;7404215;19;19929;-64
2022/12/15 05:49:46;;;;;;;8.75;4.97;;;-6.80;99.90;;;;;;7400600;19;20034;-64
2022/12/15 05:52:15;;;;;;;13.77;5.85;;;-7.00;99.90;;;;;;7404170;19;19936;-64
2022/12/15 05:54:44;;;;;;;7.57;4.85;;;;;;;;;;7402942;19;19923;-64
2022/12/15 05:57:14;;;;;;;11.35;4.72;;;-6.30;99.90;;;;;;7402224;19;19925;-64
2022/12/15 05:59:42;;;;;;;16.58;5.25;;;-6.00;99.90;;;;;;7400868;19;20364;-64
2022/12/15 06:02:11;;;;;;;10.68;5.20;;;-6.70;99.90;;;;;;7400867;19;20338;-64
2022/12/15 06:04:43;;;;;;;7.93;4.90;;;-6.50;99.90;;;;;;7402191;19;19914;-65
2022/12/15 06:07:12;;;;;;;9.40;5.40;;;-6.90;99.90;;;;;;7404154;19;19918;-64
2022/12/15 06:09:41;;;;;;;9.40;4.50;;;-5.80;99.90;;;;;;7402988;19;19945;-64
2022/12/15 06:12:10;;;;;;;9.40;4.60;;;-6.10;99.90;;;;;;7403400;19;19918;-64
2022/12/15 06:14:39;;;;;;;7.88;4.63;;;-6.40;99.90;;;;;;7385461;19;19918;-64
2022/12/15 06:17:08;;;;;;;8.75;4.55;;;;;;;;;;7317769;19;19915;-65
2022/12/15 06:19:44;;;;;;;7.13;4.38;;;-6.70;99.90;;;;;;7308856;19;19933;-64
2022/12/15 06:22:13;;;;;;;7.63;4.13;;;-6.80;99.90;;;;;;7400924;19;19922;-63
2022/12/15 06:24:42;;;;;;;8.95;4.43;;;-5.60;99.90;;;;;;7402558;19;19939;-64
2022/12/15 06:27:11;;;;;;;12.02;4.88;;;-5.70;99.90;;;;;;7404319;19;19915;-62
2022/12/15 06:29:44;;;;;;;7.03;4.22;;;-6.70;99.90;;;;;;7406100;19;20037;-63
2022/12/15 06:32:12;;;;;;;9.40;4.50;;;-6.40;99.90;;;;;;7404897;19;19927;-63
2022/12/15 06:34:44;;;;;;;9.20;4.32;;;-6.80;99.90;;;;;;7398762;19;20330;-62
2022/12/15 06:37:14;;;;;;;8.48;4.32;;;-6.10;99.90;;;;;;7403501;19;19926;-63
2022/12/15 06:39:43;;;;;;;7.78;4.38;;;-6.80;99.90;;;;;;7406155;19;19925;-63
2022/12/15 06:42:17;;;;;;;7.25;4.05;;;-5.60;99.90;;;;;;7408654;19;19922;-63
2022/12/15 06:44:46;;;;;;;7.63;3.85;;;-5.80;99.90;;;;;;7406982;19;19947;-63
2022/12/15 06:47:16;;;;;;;10.63;4.38;;;;;;;;;;7406440;19;19926;-64
2022/12/15 06:49:47;;;;;;;6.18;2.95;;;-6.20;99.90;;;;;;7410378;19;20291;-62
2022/12/15 06:52:17;;;;;;;7.18;4.25;;;-6.30;99.90;;;;;;7398478;19;19915;-63
2022/12/15 06:54:46;;;;;;;7.90;2.80;;;-6.10;99.90;;;;;;7410077;19;20285;-63
2022/12/15 06:57:15;;;;;;;9.57;3.72;;;-5.90;99.90;;;;;;7405037;19;20307;-63
2022/12/15 06:59:45;;;;;;;7.15;3.83;;;-6.20;99.90;;;;;;7409339;19;19919;-62
2022/12/15 07:02:17;;;;;;;7.97;4.78;;;-6.30;99.90;;;;;;7408391;19;19998;-63
2022/12/15 07:04:49;;;;;;;10.15;4.13;;;-6.70;99.90;;;;;;7411512;19;19923;-63
2022/12/15 07:07:19;;;;;;;6.20;3.80;;;-7.10;99.90;;;;;;7406038;19;19926;-64
2022/12/15 07:09:52;;;;;;;11.13;4.88;;;-6.70;99.90;;;;;;7400457;19;20860;-63
2022/12/15 07:12:21;;;;;;;8.38;4.47;;;-6.50;99.90;;;;;;7405272;19;19940;-63
2022/12/15 07:14:50;;;;;;;6.22;3.72;;;-5.90;99.90;;;;;;7407298;19;19931;-64
2022/12/15 07:17:22;;;;;;;6.97;3.88;;;-6.10;99.90;;;;;;7408820;19;20375;-63
2022/12/15 07:19:53;;;;;;;8.80;4.03;;;-6.50;99.90;;;;;;7408946;19;19971;-63
2022/12/15 07:22:23;;;;;;;12.13;4.75;;;-6.40;99.90;;;;;;7406882;19;19922;-62
2022/12/15 07:24:52;;;;;;;8.27;3.95;;;-6.90;99.90;;;;;;7406783;19;20613;-62
2022/12/15 07:27:21;;;;;;;8.55;4.68;;;-6.20;99.90;;;;;;7406606;19;19914;-63
2022/12/15 07:29:51;;;;;;;5.47;3.22;;;-6.70;99.90;;;;;;7410998;19;19926;-63
2022/12/15 07:32:20;;;;;;;8.00;4.20;;;;;;;;;;7405809;19;19922;-63
2022/12/15 07:34:50;;;;;;;9.25;3.60;;;-6.70;99.90;;;;;;7405751;19;19927;-64
2022/12/15 07:37:21;;;;;;;7.28;3.90;;;-6.50;99.90;;;;;;7406186;19;19935;-64
2022/12/15 07:39:50;;;;;;;7.68;3.47;;;-7.20;99.90;;;;;;7407084;19;19929;-64
2022/12/15 07:42:19;;;;;;;8.27;4.30;;;-7.20;99.90;;;;;;7407682;19;19919;-63
2022/12/15 07:44:48;;;;;;;9.63;3.58;;;-6.50;99.90;;;;;;7405520;19;20346;-63
2022/12/15 07:47:26;;;;;;;9.68;4.43;;;-6.80;99.90;;;;;;7405429;19;20598;-63
2022/12/15 07:49:56;;;;;;;;;;;-6.70;99.90;;;;;;7407301;19;19939;-64
2022/12/15 07:52:29;;;;;;;10.77;3.63;;;-6.80;99.90;;;;;;7394389;19;19927;-63
2022/12/15 07:54:58;;;;;;;;;;;-6.70;99.90;;;;;;7407062;19;19934;-64
2022/12/15 07:57:27;;;;;;;8.85;4.40;;;-6.30;99.90;;;;;;7407981;19;19923;-63
2022/12/15 08:00:00;;;;;;;9.60;4.22;;;-6.90;99.90;;;;;;7396441;19;19930;-64
2022/12/15 08:02:36;;;;;;;6.70;3.47;;;;;;;;;;7406450;19;19919;-64
2022/12/15 08:05:05;;;;;;;7.45;4.30;;;-6.20;99.90;;;;;;7407411;19;19915;-64
2022/12/15 08:07:45;;;;;;;14.48;5.38;;;-6.90;99.90;;;;;;7406102;19;20254;-64
2022/12/15 08:10:14;;;;;;;8.45;4.35;;;-6.70;99.90;;;;;;7404204;19;19968;-63
2022/12/15 08:12:44;;;;;;;12.07;4.82;;;-6.00;99.90;;;;;;7402703;19;19925;-63
2022/12/15 08:15:14;;;;;;;6.53;4.25;;;-6.10;99.90;;;;;;7405046;19;19911;-64
2022/12/15 08:17:43;;;;;;;8.50;4.15;;;-6.90;99.90;;;;;;7405849;19;19950;-64
2022/12/15 08:20:13;;;;;;;6.75;3.10;;;-6.90;99.90;;;;;;7404286;19;20271;-64
2022/12/15 08:22:45;;;;;;;9.25;4.20;;;-7.10;99.90;;;;;;7406781;19;19926;-64
2022/12/15 08:25:14;;;;;;;8.45;4.32;;;;;;;;;;7404053;19;19949;-64
2022/12/15 08:27:46;;;;;;;;;;;-6.50;99.90;;;;;;7407119;19;19932;-64
2022/12/15 08:30:15;;;;;;;7.68;4.05;;;-5.70;99.90;;;;;;7405795;19;19919;-64
2022/12/15 08:32:50;;;;;;;10.45;4.32;;;-7.10;99.90;;;;;;7400448;19;19934;-64
2022/12/15 08:35:19;;;;;;;8.82;4.15;;;;;;;;;;7396383;19;19922;-64
2022/12/15 08:37:51;;;;;;;9.60;4.28;;;-6.40;99.90;;;;;;7405121;19;20710;-64
2022/12/15 08:40:21;;;;;;;12.85;5.32;;;-6.80;99.90;;;;;;7404067;19;20334;-63
2022/12/15 08:42:50;;;;;;;8.38;4.30;;;-5.40;99.90;;;;;;7404926;19;19923;-64
2022/12/15 08:45:19;;;;;;;8.60;4.40;;;-5.70;99.90;;;;;;7395970;19;19930;-64
2022/12/15 08:47:58;;;;;;;8.23;4.10;;;-6.30;99.90;;;;;;7402371;19;20061;-64
2022/12/15 08:50:28;;;;;;;7.55;4.40;;;-6.30;99.90;;;;;;7404474;19;19925;-64
2022/12/15 08:53:01;;;;;;;6.22;4.28;;;-6.20;99.90;;;;;;7403861;19;19940;-64
2022/12/15 08:55:30;;;;;;;8.15;4.50;;;;;;;;;;7402502;19;19933;-64
2022/12/15 08:58:02;;;;;;;7.15;4.05;;;;;;;;;;7403813;19;19927;-64
2022/12/15 09:00:31;;;;;;;9.23;4.30;;;-5.40;99.90;;;;;;7405949;19;19929;-64
2022/12/15 09:03:01;;;;;;;10.43;4.20;;;-6.10;99.90;;;;;;7396144;19;19952;-64
2022/12/15 09:05:31;;;;;;;9.10;4.45;;;-5.90;99.90;;;;;;7401017;19;20629;-64
2022/12/15 09:08:02;;;;;;;7.63;4.28;;;-5.70;99.90;;;;;;7405665;19;19915;-64
2022/12/15 09:10:32;;;;;;;10.00;5.03;;;-5.90;99.90;;;;;;7402271;19;19932;-64
2022/12/15 09:13:03;;;;;;;;;;;-5.80;99.90;;;;;;7405873;19;19919;-64
2022/12/15 09:15:32;;;;;;;9.68;5.07;;;-5.70;99.90;;;;;;7404951;19;19923;-64
2022/12/15 09:18:02;;;;;;;5.80;3.75;;;-5.90;99.90;;;;;;7388163;19;19922;-64
2022/12/15 09:20:31;;;;;;;8.93;5.35;;;-5.50;99.90;;;;;;7402736;19;19923;-64
2022/12/15 09:23:03;;;;;;;8.88;5.15;;;-5.60;99.90;;;;;;7403139;19;20671;-64
2022/12/15 09:25:32;;;;;;;8.20;4.88;;;-5.70;99.90;;;;;;7403971;19;19927;-64
2022/12/15 09:28:02;;;;;;;5.80;3.90;;;-4.80;99.90;;;;;;7404050;19;19918;-64
2022/12/15 09:30:34;;;;;;;9.40;4.30;;;-5.60;99.90;;;;;;7405040;19;19991;-64
2022/12/15 09:33:07;;;;;;;9.75;4.95;;;-4.70;99.90;;;;;;7392434;19;20298;-64
2022/12/15 09:35:36;;;;;;;6.85;3.95;;;-5.60;99.90;;;;;;7404697;19;19940;-64
2022/12/15 09:38:10;;;;;;;9.30;3.80;;;-4.40;99.90;;;;;;7403268;19;19915;-64
2022/12/15 09:40:40;;;;;;;9.95;5.25;;;-5.80;99.90;;;;;;7404028;19;19919;-64
2022/12/15 09:43:13;;;;;;;8.63;4.63;;;-4.50;99.90;;;;;;7397389;19;20779;-64
2022/12/15 09:45:46;;;;;;;7.70;4.20;;;-5.10;99.90;;;;;;7399735;19;19922;-64
2022/12/15 09:48:21;;;;;;;10.57;4.68;;;-5.50;99.90;;;;;;7396532;19;19918;-63
2022/12/15 09:50:54;;;;;;;7.60;4.97;;;-5.60;99.90;;;;;;7400964;19;19918;-63
2022/12/15 09:53:27;;;;;;;9.93;4.80;;;-4.30;99.90;;;;;;7401079;19;19918;-63
2022/12/15 09:56:05;;;;;;;6.95;4.28;;;-5.10;99.90;;;;;;7393990;19;20025;-63
2022/12/15 09:58:44;;;;;;;8.75;4.80;;;-4.70;99.90;;;;;;7400746;19;19971;-64
2022/12/15 10:01:25;;;;;;;7.13;4.18;;;-5.60;99.90;;;;;;7404411;19;19919;-64
2022/12/15 10:04:03;;;;;;;11.57;4.40;;;-5.30;99.90;;;;;;7410523;19;19926;-63
2022/12/15 10:06:37;;;;;;;6.53;3.50;;;-4.60;99.90;;;;;;7410080;19;20306;-63
2022/12/15 10:09:18;;;;;;;8.40;4.05;;;-5.00;99.90;;;;;;7409884;19;20370;-64
2022/12/15 10:11:52;;;;;;;7.28;4.07;;;-5.10;99.90;;;;;;7408296;19;19919;-64
2022/12/15 10:14:29;;;;;;;12.93;4.60;;;-3.60;99.90;;;;;;7406653;19;19930;-64
2022/12/15 10:17:08;;;;;;;6.93;4.38;;;-3.70;99.90;;;;;;7411389;19;19918;-63
2022/12/15 10:19:43;;;;;;;7.10;3.80;;;-3.80;99.90;;;;;;7408205;19;20753;-63
2022/12/15 10:22:17;;;;;;;10.82;5.35;;;-3.50;99.90;;;;;;7410021;19;20405;-63
2022/12/15 10:24:50;;;;;;;7.47;4.03;;;-4.50;99.90;;;;;;7410292;19;19924;-63
2022/12/15 10:27:31;;;;;;;6.15;4.03;;;-5.10;99.90;;;;;;7409562;19;19926;-64
2022/12/15 10:30:04;;;;;;;15.55;4.70;;;-3.60;99.90;;;;;;7409408;19;20279;-64
2022/12/15 10:32:50;;;;;;;13.68;5.55;;;-4.40;99.90;;;;;;7405599;19;19989;-63
2022/12/15 10:35:27;;;;;;;11.65;4.60;;;-3.80;99.90;;;;;;7406833;19;19978;-63
2022/12/15 10:37:59;;;;;;;8.80;6.28;;;-4.50;99.90;;;;;;7408611;19;19923;-63
2022/12/15 10:40:51;;;;;;;6.68;3.83;;;-3.90;99.90;;;;;;7407339;19;19922;-63
2022/12/15 10:43:32;;;;;;;6.53;3.60;;;-3.40;99.90;;;;;;7407775;19;20072;-64
2022/12/15 10:46:05;;;;;;;8.65;4.88;;;-3.40;99.90;;;;;;7408843;19;19918;-63
2022/12/15 10:48:34;;;;;;;9.88;4.68;;;-4.20;99.90;;;;;;7406961;19;19926;-64
2022/12/15 10:51:20;;;;;;;10.45;4.60;;;-4.20;99.90;;;;;;7396264;19;20485;-65
2022/12/15 10:53:56;;;;;;;9.85;4.75;;;-3.80;99.90;;;;;;7403365;19;19914;-64
2022/12/15 10:56:32;;;;;;;8.27;4.72;;;-4.60;99.90;;;;;;7406398;19;19918;-63
2022/12/15 10:59:03;;;;;;;8.60;4.95;;;-3.70;99.90;;;;;;7406531;19;20123;-63
2022/12/15 11:01:35;;;;;;;9.23;4.80;;;-4.20;99.90;;;;;;7407718;19;19918;-62
2022/12/15 11:04:04;;;;;;;9.73;4.65;;;-3.10;99.90;;;;;;7406776;19;19922;-63
2022/12/15 11:06:35;;;;;;;6.35;4.50;;;-2.80;99.90;;;;;;7409176;19;19929;-63
2022/12/15 11:09:20;;;;;;;10.55;4.57;;;-3.10;99.90;;;;;;7390156;19;19961;-64
2022/12/15 11:14:45;;;;;;;9.07;4.47;;;-3.80;99.90;;;;;;7405728;19;19929;-63
2022/12/15 11:17:17;;;;;;;8.10;4.03;;;-2.60;99.90;;;;;;7407986;19;19944;-63
2022/12/15 11:19:54;;;;;;;9.68;4.40;;;-2.20;99.90;;;;;;7406107;19;19923;-63
2022/12/15 11:22:32;;;;;;;8.23;4.53;;;-2.30;99.90;;;;;;7404377;19;20345;-63
2022/12/15 11:25:06;;;;;;;7.13;4.25;;;-2.20;99.90;;;;;;7400331;19;19926;-63
2022/12/15 11:27:42;;;;;;;6.85;4.32;;;-2.10;99.90;;;;;;7316053;19;20294;-64
2022/12/15 11:30:15;;;;;;;8.70;4.72;;;-3.10;99.90;;;;;;7402487;19;19922;-64
2022/12/15 11:32:48;;;;;;;9.23;4.82;;;-2.50;99.90;;;;;;7405094;19;19932;-64
2022/12/15 11:35:19;;;;;;;;;;;-2.70;99.90;;;;;;7406773;19;19922;-64
2022/12/15 11:37:51;;;;;;;7.80;3.63;;;-2.60;99.90;;;;;;7407463;19;19994;-63
2022/12/15 11:40:40;;;;;;;7.35;4.55;;;-3.10;99.90;;;;;;7407919;19;19983;-64
2022/12/15 11:43:32;;;;;;;7.05;4.05;;;-2.30;99.90;;;;;;7406016;19;19926;-65
2022/12/15 11:46:17;;;;;;;9.20;5.38;;;-2.70;99.90;;;;;;7358269;19;19912;-66
2022/12/15 11:48:58;;;;;;;7.90;4.18;;;-2.70;99.90;;;;;;7404478;19;19922;-64
2022/12/15 11:51:39;;;;;;;7.97;4.57;;;-1.80;99.90;;;;;;7397254;19;20013;-64
2022/12/15 11:54:20;;;;;;;9.43;4.88;;;-2.30;99.90;;;;;;7402523;19;19922;-64
2022/12/15 11:56:53;;;;;;;8.05;4.53;;;-3.30;99.90;;;;;;7404637;19;20300;-64
2022/12/15 11:59:39;;;;;;;7.85;4.60;;;-2.70;99.90;;;;;;7404541;19;19918;-64
2022/12/15 12:02:26;;;;;;;7.63;4.70;;;-1.90;99.90;;;;;;7404643;19;19950;-64
2022/12/15 12:05:16;;;;;;;9.07;4.80;;;-1.70;99.90;;;;;;7403115;19;19927;-64
2022/12/15 12:07:48;;;;;;;6.47;4.05;;;-1.10;99.90;;;;;;7403795;19;20357;-64
2022/12/15 12:10:25;;;;;;;;;;;-2.00;99.90;;;;;;7395196;19;20224;-64
2022/12/15 12:13:02;;;;;;;7.75;3.63;;;-2.20;99.90;;;;;;7402317;19;19918;-64
2022/12/15 12:15:46;;;;;;;11.25;4.07;;;-2.80;99.90;;;;;;7406355;19;20254;-64
2022/12/15 12:18:21;;;;;;;8.98;4.03;;;-2.20;99.90;;;;;;7405212;19;19926;-64
2022/12/15 12:20:54;;;;;;;7.93;4.78;;;-2.70;99.90;;;;;;7403651;19;19922;-64
2022/12/15 12:23:29;;;;;;;8.85;5.00;;;-2.10;99.90;;;;;;7403083;19;19915;-64
2022/12/15 12:26:03;;;;;;;7.28;4.38;;;-1.70;99.90;;;;;;7393438;19;19947;-63
2022/12/15 12:28:47;;;;;;;10.18;4.93;;;-1.60;99.90;;;;;;7405876;19;19966;-64
2022/12/15 12:31:27;;;;;;;8.57;4.63;;;-1.80;99.90;;;;;;7403206;19;19924;-64
2022/12/15 12:34:04;;;;;;;8.48;4.28;;;-1.40;99.90;;;;;;7399955;19;19922;-64
2022/12/15 12:36:33;;;;;;;8.35;4.38;;;-0.90;99.90;;;;;;7401494;19;19951;-64
2022/12/15 12:39:02;;;;;;;7.63;3.95;;;-0.90;99.90;;;;;;7402266;19;19926;-63
2022/12/15 12:41:41;;;;;;;8.05;3.97;;;-2.20;99.90;;;;;;7401067;19;19943;-63
2022/12/15 12:44:17;;;;;;;9.45;4.93;;;-0.70;99.90;;;;;;7399145;19;19926;-63
2022/12/15 12:46:53;;;;;;;5.82;3.25;;;-1.90;99.90;;;;;;7403671;19;19925;-64
2022/12/15 12:49:30;;;;;;;8.23;4.28;;;-1.10;99.90;;;;;;7389456;19;19927;-64
2022/12/15 12:52:02;;;;;;;7.82;4.28;;;-1.50;99.90;;;;;;7396499;19;20348;-63
2022/12/15 12:54:44;;;;;;;7.60;4.57;;;-0.90;99.90;;;;;;7403207;19;19945;-63
2022/12/15 12:57:34;;;;;;;6.85;4.65;;;-1.50;99.90;;;;;;7403683;19;19922;-63
2022/12/15 13:00:16;;;;;;;10.35;4.38;;;-1.60;99.90;;;;;;7403224;19;19922;-63
2022/12/15 13:03:15;;;;;;;7.50;4.20;;;-1.00;99.90;;;;;;7403608;19;19926;-63
2022/12/15 13:05:53;;;;;;;8.15;4.43;;;-2.50;99.90;;;;;;7403821;19;19923;-63
2022/12/15 13:08:51;;;;;;;9.60;4.47;;;-2.20;99.90;;;;;;7398850;19;19922;-63
2022/12/15 13:12:00;;;;;;;7.55;3.95;;;-1.50;99.90;;;;;;7405484;19;20253;-64
2022/12/15 13:14:47;;;;;;;7.90;3.88;;;-1.30;99.90;;;;;;7402528;19;20231;-64
2022/12/15 13:17:27;;;;;;;9.00;3.63;;;-1.30;99.90;;;;;;7403331;19;19943;-64
2022/12/15 13:20:31;;;;;;;11.80;4.50;;;-1.80;99.90;;;;;;7404624;19;19956;-63
2022/12/15 13:23:30;;;;;;;9.23;4.60;;;-2.00;99.90;;;;;;7393273;19;20367;-63
2022/12/15 13:26:19;;;;;;;10.45;4.10;;;-2.50;99.90;;;;;;7401349;19;19922;-63
2022/12/15 13:28:53;;;;;;;7.63;3.88;;;-1.80;99.90;;;;;;7401423;19;20014;-65
2022/12/15 13:31:40;;;;;;;9.43;3.78;;;-2.80;99.90;;;;;;7402651;19;19939;-63
2022/12/15 13:34:24;;;;;;;9.60;4.72;;;-2.40;99.90;;;;;;7402293;19;19932;-63
2022/12/15 13:37:04;;;;;;;7.65;4.75;;;-2.40;99.90;;;;;;7401764;19;19929;-62
2022/12/15 13:39:57;;;;;;;9.65;4.35;;;-2.10;99.90;;;;;;7390192;19;19930;-63
2022/12/15 13:42:37;;;;;;;8.95;4.00;;;-2.70;99.90;;;;;;7400183;19;20368;-63
2022/12/15 13:45:40;;;;;;;7.57;4.60;;;-2.90;99.90;;;;;;7404660;19;19943;-64
2022/12/15 13:48:20;;;;;;;7.28;4.18;;;-1.90;99.90;;;;;;7399516;19;19996;-63
2022/12/15 13:50:54;;;;;;;7.70;3.90;;;-1.40;99.90;;;;;;7397843;19;19974;-64
2022/12/15 13:53:26;;;;;;;7.72;4.45;;;-2.30;99.90;;;;;;7402762;19;19915;-63
2022/12/15 13:56:07;;;;;;;7.47;4.60;;;-1.50;99.90;;;;;;7399094;19;20018;-63
2022/12/15 13:58:46;;;;;;;7.28;4.30;;;-2.10;99.90;;;;;;7399902;19;19934;-63
2022/12/15 14:01:24;;;;;;;7.15;3.45;;;-1.70;99.90;;;;;;7400813;19;19993;-63
2022/12/15 14:04:01;;;;;;;10.10;4.93;;;-1.60;99.90;;;;;;7398441;19;19993;-63
2022/12/15 14:06:38;;;;;;;7.97;3.78;;;-1.40;99.90;;;;;;7398661;19;20292;-63
2022/12/15 14:09:07;;;;;;;8.52;5.22;;;-1.30;99.90;;;;;;7395467;19;19933;-63
2022/12/15 14:11:38;;;;;;;11.15;5.32;;;-1.20;99.90;;;;;;7398390;19;19943;-63
2022/12/15 14:14:21;;;;;;;10.18;4.03;;;-2.30;99.90;;;;;;7396241;19;19959;-63
2022/12/15 14:17:00;;;;;;;9.25;4.82;;;-1.30;99.90;;;;;;7399885;19;19915;-63
2022/12/15 14:19:38;;;;;;;12.00;5.18;;;-2.20;99.90;;;;;;7400308;19;20346;-63
2022/12/15 14:22:21;;;;;;;10.75;5.55;;;-1.90;99.90;;;;;;7397215;19;19919;-63
2022/12/15 14:24:51;;;;;;;11.57;6.18;;;-2.50;99.90;;;;;;7401229;19;19922;-63
2022/12/15 14:27:26;;;;;;;8.38;4.85;;;-1.70;99.90;;;;;;7401324;19;19968;-63
2022/12/15 14:30:21;;;;;;;10.45;5.40;;;-1.50;99.90;;;;;;7403360;19;19918;-63
2022/12/15 14:32:53;;;;;;;11.13;5.80;;;-2.10;99.90;;;;;;7400296;19;20397;-63
2022/12/15 14:35:31;;;;;;;13.20;5.50;;;-2.60;99.90;;;;;;7403106;19;19927;-63
2022/12/15 14:38:03;;;;;;;11.98;4.90;;;-2.40;99.90;;;;;;7397438;19;19994;-64
2022/12/15 14:40:33;;;;;;;10.88;5.20;;;-3.00;99.90;;;;;;7399443;19;20256;-64
2022/12/15 14:43:03;;;;;;;9.45;5.95;;;-1.70;99.90;;;;;;7403249;19;20347;-64
2022/12/15 14:45:35;;;;;;;13.32;5.93;;;-1.40;99.90;;;;;;7400674;19;19929;-64
2022/12/15 14:48:09;;;;;;;11.77;6.15;;;-1.80;99.90;;;;;;7403843;19;19925;-64
2022/12/15 14:50:38;;;;;;;11.77;6.60;;;-2.00;99.90;;;;;;7405891;19;19918;-64
2022/12/15 14:53:15;;;;;;;9.57;5.88;;;-3.30;99.90;;;;;;7409448;19;19925;-65
2022/12/15 14:55:45;;;;;;;10.50;6.53;;;;;;;;;;7404461;19;19952;-64
2022/12/15 14:58:31;;;;;;;10.38;6.47;;;-2.20;99.90;;;;;;7406646;19;19922;-64
2022/12/15 15:01:06;;;;;;;11.45;6.10;;;-2.50;99.90;;;;;;7407338;19;19929;-64
2022/12/15 15:03:40;;;;;;;9.85;6.10;;;-3.40;99.90;;;;;;7407191;19;19933;-64
2022/12/15 15:06:19;;;;;;;14.93;7.13;;;-2.10;99.90;;;;;;7407214;19;19922;-64
2022/12/15 15:08:51;;;;;;;13.55;6.20;;;-3.50;99.90;;;;;;7407707;19;20254;-64
2022/12/15 15:11:28;;;;;;;12.10;5.90;;;-3.20;99.90;;;;;;7405918;19;20287;-63
2022/12/15 15:14:23;;;;;;;13.27;5.93;;;-2.20;99.90;;;;;;7394412;19;19914;-64
2022/12/15 15:17:08;;;;;;;12.95;6.70;;;-3.00;99.90;;;;;;7407013;19;20069;-64
2022/12/15 15:19:40;;;;;;;7.80;5.47;;;-2.60;99.90;;;;;;7408103;19;20260;-63
2022/12/15 15:22:27;;;;;;;14.05;7.05;;;-2.30;99.90;;;;;;7407411;19;20335;-65
2022/12/15 15:24:59;;;;;;;15.73;6.50;;;-2.60;99.90;;;;;;7401511;19;20021;-64
2022/12/15 15:27:36;;;;;;;11.60;6.35;;;-2.70;99.90;;;;;;7404909;19;19911;-64
2022/12/15 15:30:21;;;;;;;18.20;7.80;;;-3.50;99.90;;;;;;7407368;19;20326;-64
2022/12/15 15:32:58;;;;;;;12.98;7.63;;;-2.70;99.90;;;;;;7394149;19;20725;-64
2022/12/15 15:35:33;;;;;;;13.07;6.85;;;-3.20;99.90;;;;;;7406322;19;19938;-64
2022/12/15 15:38:06;;;;;;;13.25;7.53;;;-3.80;99.90;;;;;;7407217;19;20002;-64
2022/12/15 15:40:36;;;;;;;14.40;7.40;;;-2.90;99.90;;;;;;7402293;19;19922;-65
2022/12/15 15:43:12;;;;;;;14.73;8.38;;;-3.20;99.90;;;;;;7405337;19;19926;-65
2022/12/15 15:45:43;;;;;;;12.05;7.25;;;-3.00;99.90;;;;;;7405410;19;19914;-64
2022/12/15 15:48:18;;;;;;;11.23;6.25;;;-3.70;99.90;;;;;;7398849;19;19922;-65
2022/12/15 15:50:47;;;;;;;16.65;8.60;;;-3.60;99.90;;;;;;7405428;19;19922;-64
2022/12/15 15:53:21;;;;;;;12.25;7.55;;;-3.10;99.90;;;;;;7404496;19;19998;-64
2022/12/15 15:55:52;;;;;;;17.23;7.93;;;-3.80;99.90;;;;;;7405072;19;20254;-64